sensor_id;sensor_type;location;lat;lon;timestamp;pressure;altitude;pressure_sealevel;temperature;humidity
31005;BME280;17676;52.254;4.490;2023-03-16T00:02:12;101512.31;;;6.83;100.00
31005;BME280;17676;52.254;4.490;2023-03-16T00:04:38;101510.16;;;6.71;100.00
31005;BME280;17676;52.254;4.490;2023-03-16T00:07:05;101509.47;;;6.69;100.00
31005;BME280;17676;52.254;4.490;2023-03-16T00:09:34;101496.34;;;6.66;100.00
31005;BME280;17676;52.254;4.490;2023-03-16T00:12:06;101493.66;;;6.66;100.00
31005;BME280;17676;52.254;4.490;2023-03-16T00:14:42;101497.03;;;6.68;100.00
31005;BME280;17676;52.254;4.490;2023-03-16T00:17:12;101487.28;;;6.59;100.00
31005;BME280;17676;52.254;4.490;2023-03-16T00:19:48;101484.94;;;6.72;100.00
31005;BME280;17676;52.254;4.490;2023-03-16T00:22:15;101474.16;;;6.48;100.00
31005;BME280;17676;52.254;4.490;2023-03-16T00:24:41;101486.75;;;6.55;100.00
31005;BME280;17676;52.254;4.490;2023-03-16T00:27:11;101479.38;;;6.57;100.00
31005;BME280;17676;52.254;4.490;2023-03-16T00:29:43;101487.63;;;6.72;100.00
31005;BME280;17676;52.254;4.490;2023-03-16T00:32:19;101463.91;;;6.67;100.00
31005;BME280;17676;52.254;4.490;2023-03-16T00:34:46;101463.72;;;6.61;100.00
31005;BME280;17676;52.254;4.490;2023-03-16T00:37:15;101464.44;;;6.63;100.00
31005;BME280;17676;52.254;4.490;2023-03-16T00:39:45;101467.78;;;6.73;100.00
31005;BME280;17676;52.254;4.490;2023-03-16T00:42:12;101461.38;;;6.74;100.00
31005;BME280;17676;52.254;4.490;2023-03-16T00:44:39;101458.03;;;6.64;100.00
31005;BME280;17676;52.254;4.490;2023-03-16T00:47:09;101456.34;;;6.63;100.00
31005;BME280;17676;52.254;4.490;2023-03-16T00:49:39;101449.81;;;6.65;100.00
31005;BME280;17676;52.254;4.490;2023-03-16T00:52:08;101448.63;;;6.68;100.00
31005;BME280;17676;52.254;4.490;2023-03-16T00:54:34;101439.88;;;6.66;100.00
31005;BME280;17676;52.254;4.490;2023-03-16T00:57:00;101426.78;;;6.55;100.00
31005;BME280;17676;52.254;4.490;2023-03-16T00:59:27;101436.50;;;6.56;100.00
31005;BME280;17676;52.254;4.490;2023-03-16T01:01:54;101411.31;;;6.49;100.00
31005;BME280;17676;52.254;4.490;2023-03-16T01:04:20;101423.41;;;6.61;100.00
31005;BME280;17676;52.254;4.490;2023-03-16T01:06:46;101404.56;;;6.53;100.00
31005;BME280;17676;52.254;4.490;2023-03-16T01:09:12;101419.03;;;6.76;100.00
31005;BME280;17676;52.254;4.490;2023-03-16T01:11:39;101417.53;;;6.65;100.00
31005;BME280;17676;52.254;4.490;2023-03-16T01:14:08;101429.09;;;6.50;100.00
31005;BME280;17676;52.254;4.490;2023-03-16T01:16:34;101407.97;;;6.47;100.00
31005;BME280;17676;52.254;4.490;2023-03-16T01:18:59;101405.28;;;6.55;100.00
31005;BME280;17676;52.254;4.490;2023-03-16T01:21:25;101422.06;;;6.57;100.00
31005;BME280;17676;52.254;4.490;2023-03-16T01:23:51;101392.16;;;6.60;100.00
31005;BME280;17676;52.254;4.490;2023-03-16T01:26:18;101401.22;;;6.67;100.00
31005;BME280;17676;52.254;4.490;2023-03-16T01:28:44;101395.50;;;6.62;100.00
31005;BME280;17676;52.254;4.490;2023-03-16T01:31:13;101400.53;;;6.65;100.00
31005;BME280;17676;52.254;4.490;2023-03-16T01:33:39;101390.47;;;6.59;100.00
31005;BME280;17676;52.254;4.490;2023-03-16T01:36:11;101382.41;;;6.59;100.00
31005;BME280;17676;52.254;4.490;2023-03-16T01:38:36;101387.78;;;6.67;100.00
31005;BME280;17676;52.254;4.490;2023-03-16T01:41:06;101371.28;;;6.54;100.00
31005;BME280;17676;52.254;4.490;2023-03-16T01:43:33;101359.19;;;6.50;100.00
31005;BME280;17676;52.254;4.490;2023-03-16T01:48:37;101358.72;;;6.46;100.00
31005;BME280;17676;52.254;4.490;2023-03-16T01:51:08;101351.50;;;6.31;100.00
31005;BME280;17676;52.254;4.490;2023-03-16T01:53:35;101359.03;;;6.35;100.00
31005;BME280;17676;52.254;4.490;2023-03-16T01:56:05;101351.13;;;6.42;100.00
31005;BME280;17676;52.254;4.490;2023-03-16T01:58:33;101323.44;;;6.33;100.00
31005;BME280;17676;52.254;4.490;2023-03-16T02:00:59;101331.50;;;6.33;100.00
31005;BME280;17676;52.254;4.490;2023-03-16T02:03:26;101338.06;;;6.39;100.00
31005;BME280;17676;52.254;4.490;2023-03-16T02:08:30;101327.16;;;6.24;100.00
31005;BME280;17676;52.254;4.490;2023-03-16T02:10:56;101329.84;;;6.32;100.00
31005;BME280;17676;52.254;4.490;2023-03-16T02:13:23;101341.41;;;6.33;100.00
31005;BME280;17676;52.254;4.490;2023-03-16T02:15:53;101340.38;;;6.42;100.00
31005;BME280;17676;52.254;4.490;2023-03-16T02:18:19;101324.94;;;6.52;100.00
31005;BME280;17676;52.254;4.490;2023-03-16T02:20:53;101335.34;;;6.63;100.00
31005;BME280;17676;52.254;4.490;2023-03-16T02:23:23;101308.31;;;6.56;100.00
31005;BME280;17676;52.254;4.490;2023-03-16T02:26:02;101291.34;;;6.48;100.00
31005;BME280;17676;52.254;4.490;2023-03-16T02:28:40;101299.22;;;6.49;100.00
31005;BME280;17676;52.254;4.490;2023-03-16T02:31:13;101319.22;;;6.55;100.00
31005;BME280;17676;52.254;4.490;2023-03-16T02:33:38;101304.75;;;6.56;100.00
31005;BME280;17676;52.254;4.490;2023-03-16T02:36:05;101294.34;;;6.53;100.00
31005;BME280;17676;52.254;4.490;2023-03-16T02:38:30;101289.97;;;6.52;100.00
31005;BME280;17676;52.254;4.490;2023-03-16T02:41:17;101318.69;;;6.67;100.00
31005;BME280;17676;52.254;4.490;2023-03-16T02:46:19;101313.16;;;6.61;100.00
31005;BME280;17676;52.254;4.490;2023-03-16T02:48:59;101301.72;;;6.67;100.00
31005;BME280;17676;52.254;4.490;2023-03-16T02:51:28;101300.03;;;6.66;100.00
31005;BME280;17676;52.254;4.490;2023-03-16T02:53:54;101289.06;;;6.75;100.00
31005;BME280;17676;52.254;4.490;2023-03-16T02:56:21;101296.97;;;6.77;100.00
31005;BME280;17676;52.254;4.490;2023-03-16T02:58:46;101304.69;;;6.88;100.00
31005;BME280;17676;52.254;4.490;2023-03-16T03:01:12;101288.06;;;6.84;100.00
31005;BME280;17676;52.254;4.490;2023-03-16T03:03:38;101304.50;;;6.89;100.00
31005;BME280;17676;52.254;4.490;2023-03-16T03:06:07;101281.97;;;6.90;100.00
31005;BME280;17676;52.254;4.490;2023-03-16T03:08:33;101291.53;;;6.93;100.00
31005;BME280;17676;52.254;4.490;2023-03-16T03:10:59;101287.53;;;6.89;100.00
31005;BME280;17676;52.254;4.490;2023-03-16T03:13:25;101287.66;;;6.95;100.00
31005;BME280;17676;52.254;4.490;2023-03-16T03:15:51;101276.25;;;6.93;100.00
31005;BME280;17676;52.254;4.490;2023-03-16T03:18:17;101299.25;;;7.04;100.00
31005;BME280;17676;52.254;4.490;2023-03-16T03:20:43;101292.72;;;6.90;100.00
31005;BME280;17676;52.254;4.490;2023-03-16T03:23:09;101276.59;;;6.90;100.00
31005;BME280;17676;52.254;4.490;2023-03-16T03:25:34;101269.75;;;6.80;100.00
31005;BME280;17676;52.254;4.490;2023-03-16T03:28:01;101270.03;;;6.85;100.00
31005;BME280;17676;52.254;4.490;2023-03-16T03:30:29;101280.44;;;6.96;100.00
31005;BME280;17676;52.254;4.490;2023-03-16T03:32:55;101259.28;;;6.85;100.00
31005;BME280;17676;52.254;4.490;2023-03-16T03:35:21;101232.06;;;6.80;100.00
31005;BME280;17676;52.254;4.490;2023-03-16T03:37:50;101242.13;;;6.86;100.00
31005;BME280;17676;52.254;4.490;2023-03-16T03:40:16;101234.47;;;6.75;100.00
31005;BME280;17676;52.254;4.490;2023-03-16T03:42:43;101254.84;;;7.00;100.00
31005;BME280;17676;52.254;4.490;2023-03-16T03:45:10;101247.16;;;6.89;100.00
31005;BME280;17676;52.254;4.490;2023-03-16T03:47:38;101239.16;;;6.73;100.00
31005;BME280;17676;52.254;4.490;2023-03-16T03:50:05;101252.19;;;6.92;100.00
31005;BME280;17676;52.254;4.490;2023-03-16T03:52:30;101232.41;;;6.77;100.00
31005;BME280;17676;52.254;4.490;2023-03-16T03:54:56;101245.97;;;6.91;100.00
31005;BME280;17676;52.254;4.490;2023-03-16T03:57:22;101229.75;;;6.69;100.00
31005;BME280;17676;52.254;4.490;2023-03-16T03:59:48;101236.94;;;6.84;100.00
31005;BME280;17676;52.254;4.490;2023-03-16T04:02:14;101232.06;;;6.80;100.00
31005;BME280;17676;52.254;4.490;2023-03-16T04:04:41;101224.03;;;6.72;100.00
31005;BME280;17676;52.254;4.490;2023-03-16T04:07:07;101229.56;;;6.78;100.00
31005;BME280;17676;52.254;4.490;2023-03-16T04:09:32;101224.06;;;6.64;100.00
31005;BME280;17676;52.254;4.490;2023-03-16T04:12:00;101214.28;;;6.79;100.00
31005;BME280;17676;52.254;4.490;2023-03-16T04:14:27;101215.09;;;6.79;100.00
31005;BME280;17676;52.254;4.490;2023-03-16T04:16:53;101222.94;;;6.89;100.00
31005;BME280;17676;52.254;4.490;2023-03-16T04:19:20;101225.38;;;6.76;100.00
31005;BME280;17676;52.254;4.490;2023-03-16T04:21:46;101217.94;;;6.78;100.00
31005;BME280;17676;52.254;4.490;2023-03-16T04:24:11;101213.28;;;6.72;100.00
31005;BME280;17676;52.254;4.490;2023-03-16T04:26:39;101220.59;;;6.86;100.00
31005;BME280;17676;52.254;4.490;2023-03-16T04:29:06;101214.28;;;6.79;100.00
31005;BME280;17676;52.254;4.490;2023-03-16T04:31:32;101205.53;;;6.77;100.00
31005;BME280;17676;52.254;4.490;2023-03-16T04:33:58;101195.75;;;6.84;100.00
31005;BME280;17676;52.254;4.490;2023-03-16T04:36:23;101193.44;;;6.73;100.00
31005;BME280;17676;52.254;4.490;2023-03-16T04:38:49;101182.38;;;6.68;100.00
31005;BME280;17676;52.254;4.490;2023-03-16T04:41:16;101190.78;;;6.65;100.00
31005;BME280;17676;52.254;4.490;2023-03-16T04:43:42;101163.41;;;6.61;100.00
31005;BME280;17676;52.254;4.490;2023-03-16T04:46:08;101178.16;;;6.73;100.00
31005;BME280;17676;52.254;4.490;2023-03-16T04:48:35;101185.75;;;6.62;100.00
31005;BME280;17676;52.254;4.490;2023-03-16T04:51:01;101185.56;;;6.63;100.00
31005;BME280;17676;52.254;4.490;2023-03-16T04:53:31;101196.16;;;6.65;100.00
31005;BME280;17676;52.254;4.490;2023-03-16T04:55:57;101171.38;;;6.47;100.00
31005;BME280;17676;52.254;4.490;2023-03-16T04:58:23;101168.53;;;6.48;100.00
31005;BME280;17676;52.254;4.490;2023-03-16T05:00:53;101160.97;;;6.44;100.00
31005;BME280;17676;52.254;4.490;2023-03-16T05:03:20;101141.16;;;6.37;100.00
31005;BME280;17676;52.254;4.490;2023-03-16T05:05:46;101161.28;;;6.49;100.00
31005;BME280;17676;52.254;4.490;2023-03-16T05:08:12;101139.81;;;6.41;100.00
31005;BME280;17676;52.254;4.490;2023-03-16T05:10:37;101122.13;;;6.46;100.00
31005;BME280;17676;52.254;4.490;2023-03-16T05:13:04;101134.41;;;6.41;100.00
31005;BME280;17676;52.254;4.490;2023-03-16T05:15:29;101121.53;;;6.36;100.00
31005;BME280;17676;52.254;4.490;2023-03-16T05:17:55;101126.31;;;6.49;100.00
31005;BME280;17676;52.254;4.490;2023-03-16T05:20:21;101110.22;;;6.41;100.00
31005;BME280;17676;52.254;4.490;2023-03-16T05:22:47;101117.66;;;6.39;100.00
31005;BME280;17676;52.254;4.490;2023-03-16T05:25:13;101118.28;;;6.41;100.00
31005;BME280;17676;52.254;4.490;2023-03-16T05:27:52;101090.81;;;6.31;100.00
31005;BME280;17676;52.254;4.490;2023-03-16T05:30:18;101091.16;;;6.28;100.00
31005;BME280;17676;52.254;4.490;2023-03-16T05:32:44;101087.09;;;6.32;100.00
31005;BME280;17676;52.254;4.490;2023-03-16T05:35:11;101074.50;;;6.32;100.00
31005;BME280;17676;52.254;4.490;2023-03-16T05:37:41;101102.53;;;6.38;100.00
31005;BME280;17676;52.254;4.490;2023-03-16T05:40:09;101087.22;;;6.38;100.00
31005;BME280;17676;52.254;4.490;2023-03-16T05:42:42;101069.59;;;6.36;100.00
31005;BME280;17676;52.254;4.490;2023-03-16T05:45:12;101078.66;;;6.43;100.00
31005;BME280;17676;52.254;4.490;2023-03-16T05:47:38;101090.34;;;6.50;100.00
31005;BME280;17676;52.254;4.490;2023-03-16T05:50:05;101095.72;;;6.50;100.00
31005;BME280;17676;52.254;4.490;2023-03-16T05:52:33;101084.69;;;6.45;100.00
31005;BME280;17676;52.254;4.490;2023-03-16T05:54:59;101084.25;;;6.33;100.00
31005;BME280;17676;52.254;4.490;2023-03-16T05:57:24;101075.50;;;6.31;100.00
31005;BME280;17676;52.254;4.490;2023-03-16T05:59:53;101072.00;;;6.31;100.00
31005;BME280;17676;52.254;4.490;2023-03-16T06:02:19;101082.44;;;6.26;100.00
31005;BME280;17676;52.254;4.490;2023-03-16T06:04:45;101079.00;;;6.40;100.00
31005;BME280;17676;52.254;4.490;2023-03-16T06:07:12;101084.81;;;6.51;100.00
31005;BME280;17676;52.254;4.490;2023-03-16T06:09:37;101085.66;;;6.52;100.00
31005;BME280;17676;52.254;4.490;2023-03-16T06:12:03;101054.53;;;6.27;100.00
31005;BME280;17676;52.254;4.490;2023-03-16T06:14:29;101063.63;;;6.26;100.00
31005;BME280;17676;52.254;4.490;2023-03-16T06:16:55;101089.97;;;6.30;100.00
31005;BME280;17676;52.254;4.490;2023-03-16T06:19:21;101060.25;;;6.24;100.00
31005;BME280;17676;52.254;4.490;2023-03-16T06:21:46;101084.72;;;6.37;100.00
31005;BME280;17676;52.254;4.490;2023-03-16T06:24:12;101067.25;;;6.33;100.00
31005;BME280;17676;52.254;4.490;2023-03-16T06:26:40;101051.00;;;6.26;100.00
31005;BME280;17676;52.254;4.490;2023-03-16T06:29:06;101063.22;;;6.37;100.00
31005;BME280;17676;52.254;4.490;2023-03-16T06:31:32;101054.59;;;6.19;100.00
31005;BME280;17676;52.254;4.490;2023-03-16T06:33:59;101044.44;;;6.29;100.00
31005;BME280;17676;52.254;4.490;2023-03-16T06:36:26;101026.81;;;6.26;100.00
31005;BME280;17676;52.254;4.490;2023-03-16T06:38:51;101043.56;;;6.36;100.00
31005;BME280;17676;52.254;4.490;2023-03-16T06:41:17;101052.16;;;6.32;100.00
31005;BME280;17676;52.254;4.490;2023-03-16T06:43:42;101041.72;;;6.37;100.00
31005;BME280;17676;52.254;4.490;2023-03-16T06:46:08;101046.78;;;6.32;100.00
31005;BME280;17676;52.254;4.490;2023-03-16T06:48:33;101029.63;;;6.33;100.00
31005;BME280;17676;52.254;4.490;2023-03-16T06:50:59;101036.41;;;6.21;100.00
31005;BME280;17676;52.254;4.490;2023-03-16T06:53:26;101040.09;;;6.28;100.00
31005;BME280;17676;52.254;4.490;2023-03-16T06:55:51;101034.06;;;6.26;100.00
31005;BME280;17676;52.254;4.490;2023-03-16T06:58:17;101034.53;;;6.29;100.00
31005;BME280;17676;52.254;4.490;2023-03-16T07:00:44;101027.97;;;6.32;100.00
31005;BME280;17676;52.254;4.490;2023-03-16T07:03:09;101026.84;;;6.18;100.00
31005;BME280;17676;52.254;4.490;2023-03-16T07:05:38;101022.94;;;6.29;100.00
31005;BME280;17676;52.254;4.490;2023-03-16T07:08:03;101024.00;;;6.20;100.00
31005;BME280;17676;52.254;4.490;2023-03-16T07:10:32;101059.88;;;6.35;100.00
31005;BME280;17676;52.254;4.490;2023-03-16T07:12:58;101033.47;;;6.38;100.00
31005;BME280;17676;52.254;4.490;2023-03-16T07:15:24;101018.38;;;6.37;100.00
31005;BME280;17676;52.254;4.490;2023-03-16T07:17:51;101032.84;;;6.59;100.00
31005;BME280;17676;52.254;4.490;2023-03-16T07:20:17;101018.44;;;6.52;100.00
31005;BME280;17676;52.254;4.490;2023-03-16T07:22:42;101023.16;;;6.50;100.00
31005;BME280;17676;52.254;4.490;2023-03-16T07:25:11;101015.34;;;6.40;100.00
31005;BME280;17676;52.254;4.490;2023-03-16T07:27:38;101033.13;;;6.41;100.00
31005;BME280;17676;52.254;4.490;2023-03-16T07:30:06;101032.47;;;6.62;100.00
31005;BME280;17676;52.254;4.490;2023-03-16T07:32:32;101030.81;;;6.61;100.00
31005;BME280;17676;52.254;4.490;2023-03-16T07:34:58;101032.75;;;6.75;100.00
31005;BME280;17676;52.254;4.490;2023-03-16T07:37:24;101009.97;;;6.63;100.00
31005;BME280;17676;52.254;4.490;2023-03-16T07:39:50;101014.28;;;6.72;100.00
31005;BME280;17676;52.254;4.490;2023-03-16T07:42:16;101028.56;;;6.95;100.00
31005;BME280;17676;52.254;4.490;2023-03-16T07:44:41;101041.56;;;7.06;100.00
31005;BME280;17676;52.254;4.490;2023-03-16T07:47:11;101019.41;;;6.81;100.00
31005;BME280;17676;52.254;4.490;2023-03-16T07:49:36;101047.72;;;7.14;100.00
31005;BME280;17676;52.254;4.490;2023-03-16T07:52:02;101044.06;;;7.07;100.00
31005;BME280;17676;52.254;4.490;2023-03-16T07:54:27;101026.69;;;6.95;100.00
31005;BME280;17676;52.254;4.490;2023-03-16T07:56:53;101046.00;;;7.21;100.00
31005;BME280;17676;52.254;4.490;2023-03-16T07:59:18;101042.34;;;7.14;100.00
31005;BME280;17676;52.254;4.490;2023-03-16T08:01:45;101039.91;;;7.05;100.00
31005;BME280;17676;52.254;4.490;2023-03-16T08:04:11;101035.19;;;7.07;100.00
31005;BME280;17676;52.254;4.490;2023-03-16T08:06:36;101031.81;;;7.05;100.00
31005;BME280;17676;52.254;4.490;2023-03-16T08:09:02;101047.84;;;7.21;100.00
31005;BME280;17676;52.254;4.490;2023-03-16T08:11:31;101036.50;;;7.11;100.00
31005;BME280;17676;52.254;4.490;2023-03-16T08:13:57;101059.41;;;7.44;100.00
31005;BME280;17676;52.254;4.490;2023-03-16T08:16:23;101044.28;;;7.43;100.00
31005;BME280;17676;52.254;4.490;2023-03-16T08:18:49;101049.84;;;7.41;100.00
31005;BME280;17676;52.254;4.490;2023-03-16T08:21:17;101057.00;;;7.49;100.00
31005;BME280;17676;52.254;4.490;2023-03-16T08:23:43;101046.81;;;7.59;100.00
31005;BME280;17676;52.254;4.490;2023-03-16T08:26:15;101073.00;;;7.65;100.00
31005;BME280;17676;52.254;4.490;2023-03-16T08:28:45;101047.06;;;7.49;100.00
31005;BME280;17676;52.254;4.490;2023-03-16T08:31:10;101046.69;;;7.52;100.00
31005;BME280;17676;52.254;4.490;2023-03-16T08:33:37;101048.47;;;7.60;100.00
31005;BME280;17676;52.254;4.490;2023-03-16T08:36:05;101032.84;;;7.55;100.00
31005;BME280;17676;52.254;4.490;2023-03-16T08:38:31;101062.59;;;7.62;100.00
31005;BME280;17676;52.254;4.490;2023-03-16T08:40:58;101043.72;;;7.62;100.00
31005;BME280;17676;52.254;4.490;2023-03-16T08:43:24;101058.13;;;7.69;100.00
31005;BME280;17676;52.254;4.490;2023-03-16T08:45:54;101049.22;;;7.83;100.00
31005;BME280;17676;52.254;4.490;2023-03-16T08:48:23;101030.19;;;7.84;100.00
31005;BME280;17676;52.254;4.490;2023-03-16T08:50:48;101050.91;;;7.84;100.00
31005;BME280;17676;52.254;4.490;2023-03-16T08:53:14;101044.59;;;7.91;100.00
31005;BME280;17676;52.254;4.490;2023-03-16T08:55:40;101053.41;;;8.00;100.00
31005;BME280;17676;52.254;4.490;2023-03-16T08:58:08;101035.47;;;8.07;100.00
31005;BME280;17676;52.254;4.490;2023-03-16T09:00:34;101045.34;;;8.29;100.00
31005;BME280;17676;52.254;4.490;2023-03-16T09:03:00;101066.44;;;8.40;100.00
31005;BME280;17676;52.254;4.490;2023-03-16T09:05:27;101043.44;;;8.44;100.00
31005;BME280;17676;52.254;4.490;2023-03-16T09:07:53;101057.78;;;8.65;100.00
31005;BME280;17676;52.254;4.490;2023-03-16T09:10:22;101041.28;;;8.54;100.00
31005;BME280;17676;52.254;4.490;2023-03-16T09:12:49;101039.88;;;8.79;100.00
31005;BME280;17676;52.254;4.490;2023-03-16T09:15:16;101052.38;;;8.80;100.00
31005;BME280;17676;52.254;4.490;2023-03-16T09:17:44;101041.34;;;8.81;100.00
31005;BME280;17676;52.254;4.490;2023-03-16T09:20:11;101047.09;;;9.14;100.00
31005;BME280;17676;52.254;4.490;2023-03-16T09:22:37;101040.19;;;9.32;100.00
31005;BME280;17676;52.254;4.490;2023-03-16T09:25:08;101043.16;;;9.44;100.00
31005;BME280;17676;52.254;4.490;2023-03-16T09:27:35;101046.91;;;9.43;100.00
31005;BME280;17676;52.254;4.490;2023-03-16T09:30:03;101040.41;;;9.58;100.00
31005;BME280;17676;52.254;4.490;2023-03-16T09:32:29;101057.38;;;9.52;100.00
31005;BME280;17676;52.254;4.490;2023-03-16T09:34:55;101057.81;;;9.83;100.00
31005;BME280;17676;52.254;4.490;2023-03-16T09:37:21;101052.59;;;9.82;100.00
31005;BME280;17676;52.254;4.490;2023-03-16T09:39:51;101065.63;;;10.40;100.00
31005;BME280;17676;52.254;4.490;2023-03-16T09:42:29;101065.47;;;10.48;100.00
31005;BME280;17676;52.254;4.490;2023-03-16T09:45:13;101057.28;;;11.08;100.00
31005;BME280;17676;52.254;4.490;2023-03-16T09:47:41;101052.72;;;11.09;100.00
31005;BME280;17676;52.254;4.490;2023-03-16T09:50:17;101076.91;;;11.36;100.00
31005;BME280;17676;52.254;4.490;2023-03-16T09:53:07;101060.25;;;11.33;100.00
31005;BME280;17676;52.254;4.490;2023-03-16T09:55:37;101046.91;;;11.44;100.00
31005;BME280;17676;52.254;4.490;2023-03-16T09:58:06;101057.34;;;11.34;100.00
31005;BME280;17676;52.254;4.490;2023-03-16T10:00:45;101067.13;;;11.55;100.00
31005;BME280;17676;52.254;4.490;2023-03-16T10:05:42;101069.44;;;11.38;100.00
31005;BME280;17676;52.254;4.490;2023-03-16T10:08:20;101070.84;;;11.21;100.00
31005;BME280;17676;52.254;4.490;2023-03-16T10:11:04;101056.50;;;11.40;100.00
31005;BME280;17676;52.254;4.490;2023-03-16T10:13:39;101071.94;;;11.53;100.00
31005;BME280;17676;52.254;4.490;2023-03-16T10:16:14;101067.53;;;11.52;100.00
31005;BME280;17676;52.254;4.490;2023-03-16T10:18:56;101071.91;;;11.27;100.00
31005;BME280;17676;52.254;4.490;2023-03-16T10:21:26;101052.13;;;11.26;100.00
31005;BME280;17676;52.254;4.490;2023-03-16T10:23:57;101058.16;;;11.15;100.00
31005;BME280;17676;52.254;4.490;2023-03-16T10:26:37;101076.72;;;11.18;100.00
31005;BME280;17676;52.254;4.490;2023-03-16T10:29:10;101070.66;;;11.23;100.00
31005;BME280;17676;52.254;4.490;2023-03-16T10:31:38;101063.97;;;11.19;100.00
31005;BME280;17676;52.254;4.490;2023-03-16T10:34:06;101049.38;;;11.13;100.00
31005;BME280;17676;52.254;4.490;2023-03-16T10:36:34;101055.63;;;11.07;100.00
31005;BME280;17676;52.254;4.490;2023-03-16T10:39:12;101042.94;;;11.14;100.00
31005;BME280;17676;52.254;4.490;2023-03-16T10:41:45;101035.66;;;11.54;100.00
31005;BME280;17676;52.254;4.490;2023-03-16T10:44:26;101026.47;;;11.42;100.00
31005;BME280;17676;52.254;4.490;2023-03-16T10:47:04;101034.63;;;11.61;100.00
31005;BME280;17676;52.254;4.490;2023-03-16T10:49:40;101032.53;;;11.63;100.00
31005;BME280;17676;52.254;4.490;2023-03-16T10:52:40;101051.53;;;11.63;100.00
31005;BME280;17676;52.254;4.490;2023-03-16T10:55:30;101037.31;;;11.74;100.00
31005;BME280;17676;52.254;4.490;2023-03-16T10:57:58;101036.06;;;11.70;100.00
31005;BME280;17676;52.254;4.490;2023-03-16T11:00:29;101029.81;;;11.76;100.00
31005;BME280;17676;52.254;4.490;2023-03-16T11:02:58;101027.31;;;11.75;100.00
31005;BME280;17676;52.254;4.490;2023-03-16T11:05:32;101031.91;;;11.81;100.00
31005;BME280;17676;52.254;4.490;2023-03-16T11:08:11;101023.09;;;11.85;100.00
31005;BME280;17676;52.254;4.490;2023-03-16T11:10:45;101020.66;;;11.64;100.00
31005;BME280;17676;52.254;4.490;2023-03-16T11:15:50;101022.69;;;11.82;100.00
31005;BME280;17676;52.254;4.490;2023-03-16T11:18:28;101035.44;;;11.75;100.00
31005;BME280;17676;52.254;4.490;2023-03-16T11:20:55;101031.91;;;11.61;100.00
31005;BME280;17676;52.254;4.490;2023-03-16T11:23:33;101021.44;;;11.84;100.00
31005;BME280;17676;52.254;4.490;2023-03-16T11:26:06;101010.59;;;11.84;100.00
31005;BME280;17676;52.254;4.490;2023-03-16T11:28:36;101024.97;;;11.91;100.00
31005;BME280;17676;52.254;4.490;2023-03-16T11:33:34;101015.81;;;11.86;100.00
31005;BME280;17676;52.254;4.490;2023-03-16T11:42:22;101014.44;;;12.27;100.00
31005;BME280;17676;52.254;4.490;2023-03-16T11:48:06;101020.88;;;12.26;100.00
31005;BME280;17676;52.254;4.490;2023-03-16T11:51:08;101017.75;;;12.29;100.00
31005;BME280;17676;52.254;4.490;2023-03-16T11:53:50;101016.69;;;12.30;100.00
31005;BME280;17676;52.254;4.490;2023-03-16T12:01:57;101008.56;;;12.68;100.00
31005;BME280;17676;52.254;4.490;2023-03-16T12:15:32;101009.84;;;13.03;100.00
31005;BME280;17676;52.254;4.490;2023-03-16T12:18:21;100987.84;;;13.11;100.00
31005;BME280;17676;52.254;4.490;2023-03-16T12:20:53;100989.66;;;13.41;100.00
31005;BME280;17676;52.254;4.490;2023-03-16T12:23:29;100968.75;;;13.42;100.00
31005;BME280;17676;52.254;4.490;2023-03-16T12:25:57;100992.88;;;13.56;100.00
31005;BME280;17676;52.254;4.490;2023-03-16T12:28:27;100989.38;;;13.67;100.00
31005;BME280;17676;52.254;4.490;2023-03-16T12:31:19;100981.06;;;13.44;100.00
31005;BME280;17676;52.254;4.490;2023-03-16T12:36:52;100959.31;;;13.62;100.00
31005;BME280;17676;52.254;4.490;2023-03-16T12:40:02;100980.78;;;13.52;100.00
31005;BME280;17676;52.254;4.490;2023-03-16T12:46:18;100964.69;;;13.26;100.00
31005;BME280;17676;52.254;4.490;2023-03-16T12:48:55;100936.50;;;13.45;100.00
31005;BME280;17676;52.254;4.490;2023-03-16T12:51:37;100940.38;;;13.56;100.00
31005;BME280;17676;52.254;4.490;2023-03-16T12:54:21;100927.56;;;13.38;100.00
31005;BME280;17676;52.254;4.490;2023-03-16T12:56:58;100930.47;;;13.61;100.00
31005;BME280;17676;52.254;4.490;2023-03-16T12:59:35;100939.50;;;13.55;100.00
31005;BME280;17676;52.254;4.490;2023-03-16T13:02:02;100941.56;;;13.42;100.00
31005;BME280;17676;52.254;4.490;2023-03-16T13:04:40;100916.03;;;13.43;100.00
31005;BME280;17676;52.254;4.490;2023-03-16T13:09:45;100921.84;;;13.46;100.00
31005;BME280;17676;52.254;4.490;2023-03-16T13:12:31;100928.84;;;13.54;100.00
31005;BME280;17676;52.254;4.490;2023-03-16T13:14:57;100917.09;;;13.42;100.00
31005;BME280;17676;52.254;4.490;2023-03-16T13:17:36;100920.03;;;13.58;100.00
31005;BME280;17676;52.254;4.490;2023-03-16T13:20:26;100924.88;;;13.74;100.00
31005;BME280;17676;52.254;4.490;2023-03-16T13:28:39;100899.66;;;13.49;100.00
31005;BME280;17676;52.254;4.490;2023-03-16T13:33:47;100896.78;;;13.80;100.00
31005;BME280;17676;52.254;4.490;2023-03-16T13:36:15;100890.31;;;13.93;100.00
31005;BME280;17676;52.254;4.490;2023-03-16T13:42:03;100866.50;;;14.06;100.00
31005;BME280;17676;52.254;4.490;2023-03-16T13:44:31;100877.69;;;13.98;100.00
31005;BME280;17676;52.254;4.490;2023-03-16T13:47:03;100880.94;;;14.07;100.00
31005;BME280;17676;52.254;4.490;2023-03-16T13:49:29;100880.88;;;13.95;100.00
31005;BME280;17676;52.254;4.490;2023-03-16T13:51:54;100869.09;;;14.01;100.00
31005;BME280;17676;52.254;4.490;2023-03-16T13:54:29;100850.03;;;14.01;100.00
31005;BME280;17676;52.254;4.490;2023-03-16T13:56:58;100857.72;;;14.22;100.00
31005;BME280;17676;52.254;4.490;2023-03-16T13:59:25;100855.53;;;14.42;100.00
31005;BME280;17676;52.254;4.490;2023-03-16T14:01:59;100850.59;;;14.51;100.00